createdAt,value
2022-12-24T00:00:10.906Z,111
2022-12-24T00:01:10.113Z,111
2022-12-24T00:02:11.435Z,111
2022-12-24T00:03:11.120Z,111
2022-12-24T00:04:09.937Z,111
2022-12-24T00:05:10.195Z,111
2022-12-24T00:06:10.384Z,111
2022-12-24T00:07:10.089Z,108
2022-12-24T00:08:09.044Z,108
2022-12-24T00:09:09.905Z,108
2022-12-24T00:10:10.181Z,108
2022-12-24T00:11:10.206Z,108
2022-12-24T00:12:10.253Z,108
2022-12-24T00:13:10.151Z,108
2022-12-24T00:14:09.881Z,108
2022-12-24T00:15:10.409Z,108
2022-12-24T00:16:09.658Z,108
2022-12-24T00:17:10.679Z,108
2022-12-24T00:18:10.083Z,108
2022-12-24T00:19:10.663Z,108
2022-12-24T00:20:10.342Z,108
2022-12-24T00:21:09.690Z,108
2022-12-24T00:22:10.078Z,108
2022-12-24T00:23:10.755Z,108
2022-12-24T00:24:09.988Z,108
2022-12-24T00:25:10.275Z,108
2022-12-24T00:26:10.530Z,108
2022-12-24T00:27:10.088Z,108
2022-12-24T00:28:10.562Z,108
2022-12-24T00:29:10.324Z,108
2022-12-24T00:30:09.894Z,108
2022-12-24T00:31:11.079Z,108
2022-12-24T00:32:10.288Z,108
2022-12-24T00:33:09.812Z,108
2022-12-24T00:34:10.159Z,108
2022-12-24T00:35:10.880Z,108
2022-12-24T00:36:09.945Z,108
2022-12-24T00:37:10.466Z,108
2022-12-24T00:38:10.503Z,108
2022-12-24T00:39:10.255Z,108
2022-12-24T00:40:09.982Z,108
2022-12-24T00:41:10.507Z,108
2022-12-24T00:42:09.906Z,108
2022-12-24T00:43:10.528Z,108
2022-12-24T00:44:10.070Z,108
2022-12-24T00:45:10.370Z,108
2022-12-24T00:46:09.136Z,108
2022-12-24T00:47:18.482Z,108
2022-12-24T00:48:10.472Z,108
2022-12-24T00:49:10.482Z,108
2022-12-24T00:50:10.301Z,108
2022-12-24T00:51:10.450Z,108
2022-12-24T00:52:10.395Z,108
2022-12-24T00:53:10.316Z,108
2022-12-24T00:54:09.876Z,108
2022-12-24T00:55:10.533Z,108
2022-12-24T00:56:09.984Z,108
2022-12-24T00:57:10.531Z,108
2022-12-24T00:58:09.404Z,108
2022-12-24T00:59:10.239Z,108
2022-12-24T01:00:10.736Z,108
2022-12-24T01:01:10.907Z,108
2022-12-24T01:02:10.993Z,108
2022-12-24T01:03:11.435Z,108
2022-12-24T01:04:09.990Z,108
2022-12-24T01:05:10.680Z,108
2022-12-24T01:06:10.515Z,108
2022-12-24T01:07:10.200Z,109
2022-12-24T01:08:10.701Z,109
2022-12-24T01:09:10.164Z,109
2022-12-24T01:10:09.962Z,109
2022-12-24T01:11:10.719Z,109
2022-12-24T01:12:10.187Z,109
2022-12-24T01:13:10.379Z,109
2022-12-24T01:14:09.944Z,109
2022-12-24T01:15:10.297Z,109
2022-12-24T01:16:10.514Z,109
2022-12-24T01:17:10.268Z,109
2022-12-24T01:18:09.830Z,109
2022-12-24T01:19:10.408Z,109
2022-12-24T01:20:09.995Z,109
2022-12-24T01:21:10.424Z,109
2022-12-24T01:22:10.003Z,109
2022-12-24T01:23:10.400Z,109
2022-12-24T01:24:10.110Z,109
2022-12-24T01:25:10.217Z,109
2022-12-24T01:26:10.107Z,109
2022-12-24T01:27:10.151Z,109
2022-12-24T01:28:10.599Z,109
2022-12-24T01:29:10.547Z,109
2022-12-24T01:30:10.185Z,109
2022-12-24T01:31:10.361Z,109
2022-12-24T01:32:10.615Z,109
2022-12-24T01:33:10.124Z,109
2022-12-24T01:34:09.786Z,109
2022-12-24T01:35:10.927Z,109
2022-12-24T01:36:10.165Z,109
2022-12-24T01:37:09.308Z,109
2022-12-24T01:38:09.036Z,109
2022-12-24T01:39:10.423Z,109
2022-12-24T01:40:10.763Z,109
2022-12-24T01:41:10.346Z,109
2022-12-24T01:42:09.825Z,109
2022-12-24T01:43:10.020Z,109
2022-12-24T01:44:10.048Z,109
2022-12-24T01:45:10.044Z,109
2022-12-24T01:46:10.990Z,109
2022-12-24T01:47:10.271Z,109
2022-12-24T01:48:09.767Z,109
2022-12-24T01:49:10.411Z,109
2022-12-24T01:50:09.948Z,109
2022-12-24T01:51:10.424Z,109
2022-12-24T01:52:09.810Z,109
2022-12-24T01:53:10.639Z,109
2022-12-24T01:54:10.259Z,109
2022-12-24T01:55:10.072Z,109
2022-12-24T01:56:09.953Z,109
2022-12-24T01:57:10.360Z,109
2022-12-24T01:58:10.781Z,109
2022-12-24T01:59:10.320Z,109
2022-12-24T02:00:09.794Z,109
2022-12-24T02:01:09.928Z,109
2022-12-24T02:02:09.540Z,109
2022-12-24T02:03:11.102Z,109
2022-12-24T02:04:10.405Z,109
2022-12-24T02:05:10.550Z,109
2022-12-24T02:06:10.497Z,109
2022-12-24T02:07:09.717Z,107
2022-12-24T02:08:10.382Z,107
2022-12-24T02:09:10.192Z,107
2022-12-24T02:10:09.971Z,107
2022-12-24T02:11:10.047Z,107
2022-12-24T02:12:10.105Z,107
2022-12-24T02:13:09.248Z,107
2022-12-24T02:14:10.666Z,107
2022-12-24T02:15:10.399Z,107
2022-12-24T02:16:10.809Z,107
2022-12-24T02:17:10.194Z,107
2022-12-24T02:18:10.427Z,107
2022-12-24T02:19:09.897Z,107
2022-12-24T02:20:10.651Z,107
2022-12-24T02:21:10.045Z,107
2022-12-24T02:22:10.496Z,107
2022-12-24T02:23:09.881Z,107
2022-12-24T02:24:09.124Z,107
2022-12-24T02:25:10.522Z,107
2022-12-24T02:26:10.449Z,107
2022-12-24T02:27:10.040Z,107
2022-12-24T02:28:09.976Z,107
2022-12-24T02:29:09.751Z,107
2022-12-24T02:30:10.071Z,107
2022-12-24T02:31:10.805Z,107
2022-12-24T02:32:09.858Z,107
2022-12-24T02:33:10.750Z,107
2022-12-24T02:34:10.109Z,107
2022-12-24T02:35:10.436Z,107
2022-12-24T02:36:09.880Z,107
2022-12-24T02:37:09.583Z,107
2022-12-24T02:38:10.591Z,107
2022-12-24T02:39:10.099Z,107
2022-12-24T02:40:18.442Z,107
2022-12-24T02:41:10.379Z,107
2022-12-24T02:42:10.100Z,107
2022-12-24T02:43:10.354Z,107
2022-12-24T02:44:09.801Z,107
2022-12-24T02:45:10.365Z,107
2022-12-24T02:46:10.414Z,107
2022-12-24T02:47:10.509Z,107
2022-12-24T02:48:10.671Z,107
2022-12-24T02:49:10.116Z,107
2022-12-24T02:50:10.572Z,107
2022-12-24T02:51:10.105Z,107
2022-12-24T02:52:10.878Z,107
2022-12-24T02:53:10.081Z,107
2022-12-24T02:54:10.103Z,107
2022-12-24T02:55:09.930Z,107
2022-12-24T02:56:10.447Z,107
2022-12-24T02:57:10.646Z,107
2022-12-24T02:58:10.257Z,107
2022-12-24T02:59:10.414Z,107
2022-12-24T03:00:09.984Z,107
2022-12-24T03:01:09.887Z,107
2022-12-24T03:02:11.308Z,107
2022-12-24T03:03:10.644Z,107
2022-12-24T03:04:09.953Z,107
2022-12-24T03:05:10.531Z,107
2022-12-24T03:06:10.798Z,107
2022-12-24T03:07:10.409Z,103
2022-12-24T03:08:09.800Z,103
2022-12-24T03:09:10.377Z,103
2022-12-24T03:10:10.596Z,103
2022-12-24T03:11:10.319Z,103
2022-12-24T03:12:10.709Z,103
2022-12-24T03:13:10.272Z,103
2022-12-24T03:14:09.868Z,103
2022-12-24T03:15:10.032Z,103
2022-12-24T03:16:10.441Z,103
2022-12-24T03:17:10.462Z,103
2022-12-24T03:18:09.928Z,103
2022-12-24T03:19:10.576Z,103
2022-12-24T03:20:09.985Z,103
2022-12-24T03:21:09.977Z,103
2022-12-24T03:22:10.483Z,103
2022-12-24T03:23:10.191Z,103
2022-12-24T03:24:10.696Z,103
2022-12-24T03:25:10.056Z,103
2022-12-24T03:26:10.071Z,103
2022-12-24T03:27:10.360Z,103
2022-12-24T03:28:09.972Z,103
2022-12-24T03:29:10.073Z,103
2022-12-24T03:30:10.675Z,103
2022-12-24T03:31:10.060Z,103
2022-12-24T03:32:10.530Z,103
2022-12-24T03:33:09.884Z,103
2022-12-24T03:34:10.157Z,103
2022-12-24T03:35:10.792Z,103
2022-12-24T03:36:10.355Z,103
2022-12-24T03:37:09.675Z,103
2022-12-24T03:38:09.701Z,103
2022-12-24T03:39:10.591Z,103
2022-12-24T03:40:10.653Z,103
2022-12-24T03:41:10.591Z,103
2022-12-24T03:42:10.106Z,103
2022-12-24T03:43:10.565Z,103
2022-12-24T03:44:09.779Z,103
2022-12-24T03:45:09.845Z,103
2022-12-24T03:46:10.257Z,103
2022-12-24T03:47:10.486Z,103
2022-12-24T03:48:09.902Z,103
2022-12-24T03:49:10.423Z,103
2022-12-24T03:50:10.159Z,103
2022-12-24T03:51:10.455Z,103
2022-12-24T03:52:09.953Z,103
2022-12-24T03:53:09.960Z,103
2022-12-24T03:54:10.432Z,103
2022-12-24T03:55:10.742Z,103
2022-12-24T03:56:10.245Z,103
2022-12-24T03:57:09.939Z,103
2022-12-24T03:58:10.605Z,103
2022-12-24T03:59:10.237Z,103
2022-12-24T04:00:10.699Z,103
2022-12-24T04:01:11.075Z,103
2022-12-24T04:02:11.612Z,103
2022-12-24T04:03:10.324Z,103
2022-12-24T04:04:10.393Z,103
2022-12-24T04:05:10.077Z,103
2022-12-24T04:06:10.525Z,103
2022-12-24T04:07:10.693Z,105
2022-12-24T04:08:10.523Z,105
2022-12-24T04:09:10.561Z,105
2022-12-24T04:10:09.978Z,105
2022-12-24T04:11:17.655Z,105
2022-12-24T04:13:10.410Z,105
2022-12-24T04:14:10.026Z,105
2022-12-24T04:15:10.584Z,105
2022-12-24T04:16:09.253Z,105
2022-12-24T04:17:10.818Z,105
2022-12-24T04:18:09.755Z,105
2022-12-24T04:19:09.952Z,105
2022-12-24T04:20:10.395Z,105
2022-12-24T04:21:09.939Z,105
2022-12-24T04:22:10.547Z,105
2022-12-24T04:23:10.135Z,105
2022-12-24T04:24:10.575Z,105
2022-12-24T04:25:10.147Z,105
2022-12-24T04:26:09.855Z,105
2022-12-24T04:27:10.353Z,105
2022-12-24T04:28:10.271Z,105
2022-12-24T04:29:09.336Z,105
2022-12-24T04:30:09.849Z,105
2022-12-24T04:31:10.248Z,105
2022-12-24T04:32:10.373Z,105
2022-12-24T04:33:10.377Z,105
2022-12-24T04:34:09.992Z,105
2022-12-24T04:35:10.425Z,105
2022-12-24T04:36:10.027Z,105
2022-12-24T04:37:09.674Z,105
2022-12-24T04:38:10.030Z,105
2022-12-24T04:39:10.490Z,105
2022-12-24T04:40:10.119Z,105
2022-12-24T04:41:09.640Z,105
2022-12-24T04:42:10.143Z,105
2022-12-24T04:43:10.529Z,105
2022-12-24T04:44:09.694Z,105
2022-12-24T04:45:09.979Z,105
2022-12-24T04:46:11.206Z,105
2022-12-24T04:47:10.377Z,105
2022-12-24T04:48:09.917Z,105
2022-12-24T04:49:10.202Z,105
2022-12-24T04:50:09.756Z,105
2022-12-24T04:51:10.162Z,105
2022-12-24T04:52:10.050Z,105
2022-12-24T04:53:10.609Z,105
2022-12-24T04:54:08.880Z,105
2022-12-24T04:55:10.916Z,105
2022-12-24T04:56:10.217Z,105
2022-12-24T04:57:09.840Z,105
2022-12-24T04:58:10.329Z,105
2022-12-24T04:59:10.120Z,105
2022-12-24T05:00:10.600Z,105
2022-12-24T05:01:11.335Z,105
2022-12-24T05:02:11.041Z,105
2022-12-24T05:03:11.080Z,105
2022-12-24T05:04:10.196Z,105
2022-12-24T05:05:09.074Z,105
2022-12-24T05:06:09.937Z,105
2022-12-24T05:07:09.844Z,104
2022-12-24T05:08:10.318Z,104
2022-12-24T05:09:10.427Z,104
2022-12-24T05:10:10.077Z,104
2022-12-24T05:11:10.667Z,104
2022-12-24T05:12:10.072Z,104
2022-12-24T05:13:10.512Z,104
2022-12-24T05:14:10.533Z,104
2022-12-24T05:15:10.152Z,104
2022-12-24T05:16:09.415Z,104
2022-12-24T05:17:09.714Z,104
2022-12-24T05:18:10.136Z,104
2022-12-24T05:19:10.127Z,104
2022-12-24T05:20:10.470Z,104
2022-12-24T05:21:09.988Z,104
2022-12-24T05:22:10.387Z,104
2022-12-24T05:23:10.133Z,104
2022-12-24T05:24:09.665Z,104
2022-12-24T05:25:10.277Z,104
2022-12-24T05:26:09.846Z,104
2022-12-24T05:27:10.652Z,104
2022-12-24T05:28:10.218Z,104
2022-12-24T05:29:10.649Z,104
2022-12-24T05:30:09.092Z,104
2022-12-24T05:31:11.251Z,104
2022-12-24T05:32:10.195Z,104
2022-12-24T05:33:09.795Z,104
2022-12-24T05:34:10.470Z,104
2022-12-24T05:35:10.306Z,104
2022-12-24T05:36:09.691Z,104
2022-12-24T05:37:10.468Z,104
2022-12-24T05:38:09.909Z,104
2022-12-24T05:39:20.002Z,104
2022-12-24T05:41:09.068Z,104
2022-12-24T05:42:09.039Z,104
2022-12-24T05:43:10.596Z,104
2022-12-24T05:44:10.651Z,104
2022-12-24T05:45:10.645Z,104
2022-12-24T05:46:11.203Z,104
2022-12-24T05:47:10.241Z,104
2022-12-24T05:48:10.331Z,104
2022-12-24T05:49:10.367Z,104
2022-12-24T05:50:10.345Z,104
2022-12-24T05:51:09.896Z,104
2022-12-24T05:52:10.309Z,104
2022-12-24T05:53:10.113Z,104
2022-12-24T05:54:09.957Z,104
2022-12-24T05:55:10.308Z,104
2022-12-24T05:56:09.683Z,104
2022-12-24T05:57:10.565Z,104
2022-12-24T05:58:10.194Z,104
2022-12-24T05:59:10.449Z,104
2022-12-24T06:00:10.054Z,104
2022-12-24T06:01:10.623Z,104
2022-12-24T06:02:10.124Z,104
2022-12-24T06:03:10.944Z,104
2022-12-24T06:04:10.045Z,104
2022-12-24T06:05:09.389Z,104
2022-12-24T06:06:10.445Z,104
2022-12-24T06:07:09.946Z,105
2022-12-24T06:08:10.568Z,105
2022-12-24T06:09:10.210Z,105
2022-12-24T06:10:10.677Z,105
2022-12-24T06:11:10.606Z,105
2022-12-24T06:12:10.315Z,105
2022-12-24T06:13:10.047Z,105
2022-12-24T06:14:10.693Z,105
2022-12-24T06:15:10.212Z,105
2022-12-24T06:16:10.896Z,105
2022-12-24T06:17:09.669Z,105
2022-12-24T06:18:09.169Z,105
2022-12-24T06:19:10.067Z,105
2022-12-24T06:20:10.542Z,105
2022-12-24T06:21:10.134Z,105
2022-12-24T06:22:10.742Z,105
2022-12-24T06:23:10.273Z,105
2022-12-24T06:24:09.828Z,105
2022-12-24T06:25:10.325Z,105
2022-12-24T06:26:09.819Z,105
2022-12-24T06:27:10.081Z,105
2022-12-24T06:28:10.811Z,105
2022-12-24T06:29:09.887Z,105
2022-12-24T06:30:10.636Z,105
2022-12-24T06:31:12.253Z,105
2022-12-24T06:32:09.731Z,105
2022-12-24T06:33:10.034Z,105
2022-12-24T06:34:10.445Z,105
2022-12-24T06:35:10.196Z,105
2022-12-24T06:36:17.396Z,105
2022-12-24T06:38:09.713Z,105
2022-12-24T06:39:10.452Z,105
2022-12-24T06:40:10.177Z,105
2022-12-24T06:41:10.386Z,105
2022-12-24T06:42:10.139Z,105
2022-12-24T06:43:10.072Z,105
2022-12-24T06:44:10.317Z,105
2022-12-24T06:45:16.528Z,105
2022-12-24T06:46:10.635Z,105
2022-12-24T06:47:10.142Z,105
2022-12-24T06:48:10.395Z,105
2022-12-24T06:49:09.774Z,105
2022-12-24T06:50:10.390Z,105
2022-12-24T06:51:09.956Z,105
2022-12-24T06:52:10.527Z,105
2022-12-24T06:53:10.122Z,105
2022-12-24T06:54:10.339Z,105
2022-12-24T06:55:09.084Z,105
2022-12-24T06:56:10.692Z,105
2022-12-24T06:57:10.323Z,105
2022-12-24T06:58:10.691Z,105
2022-12-24T06:59:14.058Z,105
2022-12-24T07:00:10.166Z,105
2022-12-24T07:01:11.054Z,105
2022-12-24T07:02:10.998Z,105
2022-12-24T07:03:10.589Z,105
2022-12-24T07:04:14.589Z,105
2022-12-24T07:06:09.213Z,105
2022-12-24T07:07:10.190Z,108
2022-12-24T07:08:10.545Z,108
2022-12-24T07:09:10.132Z,108
2022-12-24T07:10:10.021Z,108
2022-12-24T07:11:10.350Z,108
2022-12-24T07:12:10.663Z,108
2022-12-24T07:13:10.073Z,108
2022-12-24T07:14:10.687Z,108
2022-12-24T07:15:10.299Z,108
2022-12-24T07:16:10.874Z,108
2022-12-24T07:17:10.447Z,108
2022-12-24T07:18:08.947Z,108
2022-12-24T07:19:09.990Z,108
2022-12-24T07:20:10.235Z,108
2022-12-24T07:21:10.236Z,108
2022-12-24T07:22:16.079Z,108
2022-12-24T07:23:10.572Z,108
2022-12-24T07:24:10.255Z,108
2022-12-24T07:25:10.589Z,108
2022-12-24T07:26:10.323Z,108
2022-12-24T07:27:10.097Z,108
2022-12-24T07:28:10.259Z,108
2022-12-24T07:29:09.893Z,108
2022-12-24T07:30:10.177Z,108
2022-12-24T07:31:10.124Z,108
2022-12-24T07:32:10.593Z,108
2022-12-24T07:33:10.072Z,108
2022-12-24T07:34:10.241Z,108
2022-12-24T07:35:09.977Z,108
2022-12-24T07:36:10.421Z,108
2022-12-24T07:37:09.909Z,108
2022-12-24T07:38:09.792Z,108
2022-12-24T07:39:10.354Z,108
2022-12-24T07:40:09.824Z,108
2022-12-24T07:41:09.858Z,108
2022-12-24T07:42:10.157Z,108
2022-12-24T07:43:10.860Z,108
2022-12-24T07:44:10.255Z,108
2022-12-24T07:45:09.948Z,108
2022-12-24T07:46:10.807Z,108
2022-12-24T07:47:10.497Z,108
2022-12-24T07:48:10.439Z,108
2022-12-24T07:49:10.660Z,108
2022-12-24T07:50:10.156Z,108
2022-12-24T07:51:09.891Z,108
2022-12-24T07:52:09.972Z,108
2022-12-24T07:53:10.599Z,108
2022-12-24T07:54:10.662Z,108
2022-12-24T07:55:10.193Z,108
2022-12-24T07:56:17.311Z,108
2022-12-24T07:57:10.046Z,108
2022-12-24T07:58:10.009Z,108
2022-12-24T07:59:10.606Z,108
2022-12-24T08:00:10.280Z,108
2022-12-24T08:01:11.104Z,108
2022-12-24T08:02:20.666Z,108
2022-12-24T08:04:11.034Z,108
2022-12-24T08:05:09.058Z,108
2022-12-24T08:06:10.783Z,108
2022-12-24T08:07:10.551Z,103
2022-12-24T08:08:09.923Z,103
2022-12-24T08:09:09.990Z,103
2022-12-24T08:10:10.561Z,103
2022-12-24T08:11:10.415Z,103
2022-12-24T08:12:10.074Z,103
2022-12-24T08:13:10.244Z,103
2022-12-24T08:14:10.652Z,103
2022-12-24T08:15:10.764Z,103
2022-12-24T08:16:10.804Z,103
2022-12-24T08:17:10.426Z,103
2022-12-24T08:18:10.395Z,103
2022-12-24T08:19:10.276Z,103
2022-12-24T08:20:10.268Z,103
2022-12-24T08:21:09.842Z,103
2022-12-24T08:22:10.365Z,103
2022-12-24T08:23:09.891Z,103
2022-12-24T08:24:10.469Z,103
2022-12-24T08:25:09.897Z,103
2022-12-24T08:26:10.118Z,103
2022-12-24T08:27:10.708Z,103
2022-12-24T08:28:09.110Z,103
2022-12-24T08:29:10.650Z,103
2022-12-24T08:30:10.257Z,103
2022-12-24T08:31:10.483Z,103
2022-12-24T08:32:11.101Z,103
2022-12-24T08:33:10.361Z,103
2022-12-24T08:34:09.855Z,103
2022-12-24T08:35:10.205Z,103
2022-12-24T08:36:09.746Z,103
2022-12-24T08:37:10.238Z,103
2022-12-24T08:38:09.904Z,103
2022-12-24T08:39:10.713Z,103
2022-12-24T08:40:09.912Z,103
2022-12-24T08:41:10.148Z,103
2022-12-24T08:42:10.464Z,103
2022-12-24T08:43:09.973Z,103
2022-12-24T08:44:09.944Z,103
2022-12-24T08:45:10.425Z,103
2022-12-24T08:46:10.586Z,103
2022-12-24T08:47:10.079Z,103
2022-12-24T08:48:10.562Z,103
2022-12-24T08:49:10.028Z,103
2022-12-24T08:50:10.407Z,103
2022-12-24T08:51:09.890Z,103
2022-12-24T08:52:10.099Z,103
2022-12-24T08:53:10.362Z,103
2022-12-24T08:54:09.818Z,103
2022-12-24T08:55:10.490Z,103
2022-12-24T08:56:09.938Z,103
2022-12-24T08:57:10.602Z,103
2022-12-24T08:58:10.330Z,103
2022-12-24T08:59:09.823Z,103
2022-12-24T09:00:10.461Z,103
2022-12-24T09:01:10.909Z,103
2022-12-24T09:02:11.111Z,103
2022-12-24T09:03:10.776Z,103
2022-12-24T09:04:08.916Z,103
2022-12-24T09:05:09.088Z,103
2022-12-24T09:06:10.152Z,103
2022-12-24T09:07:10.362Z,103
2022-12-24T09:08:09.768Z,103
2022-12-24T09:09:10.177Z,103
2022-12-24T09:10:10.583Z,103
2022-12-24T09:11:10.651Z,103
2022-12-24T09:12:10.242Z,103
2022-12-24T09:13:10.705Z,103
2022-12-24T09:14:10.396Z,103
2022-12-24T09:15:12.683Z,103
2022-12-24T09:16:11.054Z,103
2022-12-24T09:17:10.316Z,103
2022-12-24T09:18:10.059Z,103
2022-12-24T09:19:10.789Z,103
2022-12-24T09:20:10.112Z,103
2022-12-24T09:21:10.003Z,103
2022-12-24T09:22:10.943Z,103
2022-12-24T09:23:10.247Z,103
2022-12-24T09:24:09.980Z,103
2022-12-24T09:25:10.691Z,103
2022-12-24T09:26:10.104Z,103
2022-12-24T09:27:09.804Z,103
2022-12-24T09:28:08.930Z,103
2022-12-24T09:29:10.298Z,103
2022-12-24T09:30:09.992Z,103
2022-12-24T09:31:10.097Z,103
2022-12-24T09:32:10.471Z,103
2022-12-24T09:33:09.889Z,103
2022-12-24T09:34:10.408Z,103
2022-12-24T09:35:09.901Z,103
2022-12-24T09:36:10.333Z,103
2022-12-24T09:37:10.717Z,103
2022-12-24T09:38:10.235Z,103
2022-12-24T09:39:10.223Z,103
2022-12-24T09:40:09.620Z,103
2022-12-24T09:41:17.082Z,103
2022-12-24T09:42:10.124Z,103
2022-12-24T09:43:10.654Z,103
2022-12-24T09:44:10.053Z,103
2022-12-24T09:45:10.679Z,103
2022-12-24T09:46:10.384Z,103
2022-12-24T09:47:18.042Z,103
2022-12-24T09:49:10.170Z,103
2022-12-24T09:50:10.596Z,103
2022-12-24T09:51:10.227Z,103
2022-12-24T09:52:09.745Z,103
2022-12-24T09:53:10.298Z,103
2022-12-24T09:54:09.712Z,103
2022-12-24T09:55:10.165Z,103
2022-12-24T09:56:10.755Z,103
2022-12-24T09:57:10.240Z,103
2022-12-24T09:58:09.849Z,103
2022-12-24T09:59:10.308Z,103
2022-12-24T10:00:09.898Z,103
2022-12-24T10:01:11.383Z,103
2022-12-24T10:02:11.028Z,103
2022-12-24T10:03:10.741Z,103
2022-12-24T10:04:09.945Z,103
2022-12-24T10:05:09.074Z,103
2022-12-24T10:06:10.381Z,103
2022-12-24T10:07:10.615Z,102
2022-12-24T10:08:09.894Z,102
2022-12-24T10:09:10.421Z,102
2022-12-24T10:10:10.660Z,102
2022-12-24T10:11:10.166Z,102
2022-12-24T10:12:10.580Z,102
2022-12-24T10:13:10.099Z,102
2022-12-24T10:14:09.760Z,102
2022-12-24T10:15:10.195Z,102
2022-12-24T10:16:09.201Z,102
2022-12-24T10:17:10.274Z,102
2022-12-24T10:18:10.385Z,102
2022-12-24T10:19:09.800Z,102
2022-12-24T10:20:10.048Z,102
2022-12-24T10:21:10.401Z,102
2022-12-24T10:22:10.421Z,102
2022-12-24T10:23:09.965Z,102
2022-12-24T10:24:10.566Z,102
2022-12-24T10:25:09.982Z,102
2022-12-24T10:26:10.443Z,102
2022-12-24T10:27:10.302Z,102
2022-12-24T10:28:09.874Z,102
2022-12-24T10:29:10.351Z,102
2022-12-24T10:30:19.074Z,102
2022-12-24T10:32:09.765Z,102
2022-12-24T10:33:10.257Z,102
2022-12-24T10:34:09.779Z,102
2022-12-24T10:35:09.943Z,102
2022-12-24T10:36:18.858Z,102
2022-12-24T10:38:10.613Z,102
2022-12-24T10:39:10.118Z,102
2022-12-24T10:40:10.605Z,102
2022-12-24T10:41:10.182Z,102
2022-12-24T10:42:10.254Z,102
2022-12-24T10:43:09.898Z,102
2022-12-24T10:44:09.823Z,102
2022-12-24T10:45:10.359Z,102
2022-12-24T10:46:10.813Z,102
2022-12-24T10:47:10.763Z,102
2022-12-24T10:48:10.292Z,102
2022-12-24T10:49:09.863Z,102
2022-12-24T10:50:10.350Z,102
2022-12-24T10:51:08.810Z,102
2022-12-24T10:52:10.308Z,102
2022-12-24T10:53:09.969Z,102
2022-12-24T10:54:10.571Z,102
2022-12-24T10:55:10.270Z,102
2022-12-24T10:56:10.148Z,102
2022-12-24T10:57:10.593Z,102
2022-12-24T10:58:10.257Z,102
2022-12-24T10:59:10.677Z,102
2022-12-24T11:00:10.239Z,102
2022-12-24T11:01:11.483Z,102
2022-12-24T11:02:11.343Z,102
2022-12-24T11:03:11.541Z,102
2022-12-24T11:04:10.232Z,102
2022-12-24T11:05:10.313Z,102
2022-12-24T11:06:09.951Z,102
2022-12-24T11:07:10.617Z,102
2022-12-24T11:08:10.213Z,102
2022-12-24T11:09:10.812Z,102
2022-12-24T11:10:10.319Z,102
2022-12-24T11:11:09.925Z,102
2022-12-24T11:12:17.059Z,102
2022-12-24T11:13:45.946Z,102
2022-12-24T11:14:09.798Z,102
2022-12-24T11:15:09.789Z,102
2022-12-24T11:16:11.055Z,102
2022-12-24T11:17:09.875Z,102
2022-12-24T11:18:10.361Z,102
2022-12-24T11:19:09.895Z,102
2022-12-24T11:20:10.480Z,102
2022-12-24T11:21:09.878Z,102
2022-12-24T11:22:10.329Z,102
2022-12-24T11:23:09.584Z,102
2022-12-24T11:24:10.351Z,102
2022-12-24T11:25:10.131Z,102
2022-12-24T11:26:10.658Z,102
2022-12-24T11:27:10.388Z,102
2022-12-24T11:28:09.865Z,102
2022-12-24T11:29:10.533Z,102
2022-12-24T11:30:18.676Z,102
2022-12-24T11:31:10.835Z,102
2022-12-24T11:32:10.521Z,102
2022-12-24T11:33:10.006Z,102
2022-12-24T11:34:10.536Z,102
2022-12-24T11:35:09.930Z,102
2022-12-24T11:36:10.143Z,102
2022-12-24T11:37:18.024Z,102
2022-12-24T11:38:08.882Z,102
2022-12-24T11:39:10.558Z,102
2022-12-24T11:40:10.234Z,102
2022-12-24T11:41:10.720Z,102
2022-12-24T11:42:10.312Z,102
2022-12-24T11:43:17.243Z,102
2022-12-24T11:44:09.756Z,102
2022-12-24T11:45:10.108Z,102
2022-12-24T11:46:10.544Z,102
2022-12-24T11:47:10.072Z,102
2022-12-24T11:48:10.434Z,102
2022-12-24T11:49:16.197Z,102
2022-12-24T11:50:29.119Z,102
2022-12-24T11:52:10.637Z,102
2022-12-24T11:53:10.545Z,102
2022-12-24T11:54:10.110Z,102
2022-12-24T11:55:18.769Z,102
2022-12-24T11:56:10.471Z,102
2022-12-24T11:57:10.039Z,102
2022-12-24T11:58:10.581Z,102
2022-12-24T11:59:10.117Z,102
2022-12-24T12:00:10.683Z,102
2022-12-24T12:01:18.115Z,102
2022-12-24T12:02:09.486Z,102
2022-12-24T12:03:10.511Z,102
2022-12-24T12:04:10.969Z,102
2022-12-24T12:05:09.979Z,102
2022-12-24T12:06:10.055Z,102
2022-12-24T12:07:19.339Z,103
2022-12-24T12:08:10.292Z,103
2022-12-24T12:09:09.871Z,103
2022-12-24T12:10:10.272Z,103
2022-12-24T12:11:09.811Z,103
2022-12-24T12:12:10.375Z,103
2022-12-24T12:13:18.510Z,103
2022-12-24T12:14:10.422Z,103
2022-12-24T12:15:09.948Z,103
2022-12-24T12:16:11.077Z,103
2022-12-24T12:17:10.153Z,103
2022-12-24T12:18:10.580Z,103
2022-12-24T12:19:18.801Z,103
2022-12-24T12:20:10.483Z,103
2022-12-24T12:21:10.468Z,103
2022-12-24T12:22:10.131Z,103
2022-12-24T12:23:10.489Z,103
2022-12-24T12:24:10.107Z,103
2022-12-24T12:25:10.563Z,103
2022-12-24T12:26:10.689Z,103
2022-12-24T12:27:10.318Z,103
2022-12-24T12:28:09.819Z,103
2022-12-24T12:29:10.185Z,103
2022-12-24T12:30:10.418Z,103
2022-12-24T12:31:20.042Z,103
2022-12-24T12:32:11.006Z,103
2022-12-24T12:33:10.445Z,103
2022-12-24T12:34:10.003Z,103
2022-12-24T12:35:10.513Z,103
2022-12-24T12:36:09.977Z,103
2022-12-24T12:37:17.126Z,103
2022-12-24T12:38:10.446Z,103
2022-12-24T12:39:10.164Z,103
2022-12-24T12:40:10.577Z,103
2022-12-24T12:41:10.418Z,103
2022-12-24T12:42:10.043Z,103
2022-12-24T12:43:18.483Z,103
2022-12-24T12:44:10.409Z,103
2022-12-24T12:45:09.919Z,103
2022-12-24T12:46:10.179Z,103
2022-12-24T12:47:10.811Z,103
2022-12-24T12:48:10.061Z,103
2022-12-24T12:49:11.655Z,103
2022-12-24T12:50:10.143Z,103
2022-12-24T12:51:10.139Z,103
2022-12-24T12:52:09.740Z,103
2022-12-24T12:53:10.233Z,103
2022-12-24T12:54:10.319Z,103
2022-12-24T12:55:09.873Z,103
2022-12-24T12:56:10.323Z,103
2022-12-24T12:57:09.896Z,103
2022-12-24T12:58:10.443Z,103
2022-12-24T12:59:09.963Z,103
2022-12-24T13:00:10.389Z,103
2022-12-24T13:01:09.352Z,103
2022-12-24T13:02:11.667Z,103
2022-12-24T13:03:10.811Z,103
2022-12-24T13:04:10.462Z,103
2022-12-24T13:05:10.206Z,103
2022-12-24T13:06:10.861Z,103
2022-12-24T13:07:10.103Z,102
2022-12-24T13:08:10.716Z,102
2022-12-24T13:09:10.078Z,102
2022-12-24T13:10:10.758Z,102
2022-12-24T13:11:10.270Z,102
2022-12-24T13:12:08.979Z,102
2022-12-24T13:13:13.025Z,102
2022-12-24T13:14:10.026Z,102
2022-12-24T13:15:10.614Z,102
2022-12-24T13:16:10.710Z,102
2022-12-24T13:17:09.793Z,102
2022-12-24T13:18:10.511Z,102
2022-12-24T13:19:10.428Z,102
2022-12-24T13:20:09.908Z,102
2022-12-24T13:21:10.555Z,102
2022-12-24T13:22:10.290Z,102
2022-12-24T13:23:09.868Z,102
2022-12-24T13:24:10.330Z,102
2022-12-24T13:25:09.954Z,102
2022-12-24T13:26:09.752Z,102
2022-12-24T13:27:10.479Z,102
2022-12-24T13:28:09.823Z,102
2022-12-24T13:29:10.362Z,102
2022-12-24T13:30:18.179Z,102
2022-12-24T13:32:10.810Z,102
2022-12-24T13:33:10.199Z,102
2022-12-24T13:34:10.763Z,102
2022-12-24T13:35:10.467Z,102
2022-12-24T13:36:10.446Z,102
2022-12-24T13:37:10.025Z,102
2022-12-24T13:38:10.701Z,102
2022-12-24T13:39:10.459Z,102
2022-12-24T13:40:10.149Z,102
2022-12-24T13:41:10.506Z,102
2022-12-24T13:42:09.977Z,102
2022-12-24T13:43:10.676Z,102
2022-12-24T13:44:10.131Z,102
2022-12-24T13:45:10.028Z,102
2022-12-24T13:46:10.900Z,102
2022-12-24T13:47:09.961Z,102
2022-12-24T13:48:09.854Z,102
2022-12-24T13:49:10.294Z,102
2022-12-24T13:50:09.767Z,102
2022-12-24T13:51:10.346Z,102
2022-12-24T13:52:10.015Z,102
2022-12-24T13:53:10.562Z,102
2022-12-24T13:54:10.179Z,102
2022-12-24T13:55:10.709Z,102
2022-12-24T13:56:10.118Z,102